Time;durP1;ratioP1;P1;durP2;ratioP2;P2;SDS_P1;SDS_P2;PMS_P1;PMS_P2;Temp;Humidity;BMP_temperature;BMP_pressure;BME280_temperature;BME280_humidity;BME280_pressure;Samples;Min_cycle;Max_cycle;Signal;HPM_P1;HPM_P2
2023/05/24 00:01:07;;;;;;;4.20;1.98;;;;;;;;;;5116845;28;20256;-86
2023/05/24 00:03:38;;;;;;;7.90;3.97;;;;;;;;;;5116517;28;20204;-84
2023/05/24 00:06:07;;;;;;;6.00;2.40;;;;;;;;;;5116169;28;20204;-83
2023/05/24 00:08:34;;;;;;;7.28;2.63;;;;;;;;;;5118137;28;20286;-83
2023/05/24 00:11:02;;;;;;;3.63;2.20;;;;;;;;;;5107133;28;20270;-84
2023/05/24 00:13:29;;;;;;;8.48;2.85;;;;;;;;;;5099204;28;20232;-85
2023/05/24 00:15:57;;;;;;;4.68;2.47;;;;;;;;;;5098022;28;20200;-84
2023/05/24 00:18:25;;;;;;;4.03;2.00;;;;;;;;;;5108347;28;20249;-86
2023/05/24 00:20:55;;;;;;;5.30;2.10;;;;;;;;;;5118746;28;20227;-85
2023/05/24 00:23:25;;;;;;;6.30;2.58;;;;;;;;;;5117674;28;20191;-85
2023/05/24 00:25:52;;;;;;;6.25;2.53;;;;;;;;;;5117488;28;20224;-85
2023/05/24 00:28:20;;;;;;;3.90;2.65;;;;;;;;;;5117056;28;20299;-84
2023/05/24 00:30:47;;;;;;;6.05;2.50;;;;;;;;;;5117464;28;20314;-85
2023/05/24 00:33:15;;;;;;;3.75;1.98;;;;;;;;;;5116786;28;20210;-85
2023/05/24 00:35:42;;;;;;;6.15;2.85;;;;;;;;;;5116946;28;20720;-85
2023/05/24 00:38:15;;;;;;;4.07;2.10;;;;;;;;;;5115926;28;20286;-84
2023/05/24 00:40:44;;;;;;;4.82;2.20;;;;;;;;;;5116562;28;20560;-86
2023/05/24 00:43:11;;;;;;;6.63;2.28;;;;;;;;;;5116293;28;20567;-85
2023/05/24 00:45:39;;;;;;;4.32;1.90;;;;;;;;;;5115894;28;20609;-84
2023/05/24 00:48:07;;;;;;;4.43;2.42;;;;;;;;;;5115617;28;20199;-84
2023/05/24 00:50:34;;;;;;;7.30;2.65;;;;;;;;;;5118066;28;20667;-85
2023/05/24 00:53:03;;;;;;;4.32;2.20;;;;;;;;;;5115690;28;20196;-84
2023/05/24 00:55:31;;;;;;;5.45;2.13;;;;;;;;;;5115671;28;20291;-84
2023/05/24 00:58:00;;;;;;;7.25;2.28;;;;;;;;;;5115716;28;20282;-85
2023/05/24 01:00:30;;;;;;;5.00;2.20;;;;;;;;;;5115892;28;20628;-84
2023/05/24 01:02:59;;;;;;;4.22;2.85;;;;;;;;;;5116483;28;20239;-85
2023/05/24 01:05:27;;;;;;;6.68;2.25;;;;;;;;;;5116199;28;20195;-84
2023/05/24 01:08:03;;;;;;;5.22;2.63;;;;;;;;;;5115017;28;20310;-85
2023/05/24 01:10:39;;;;;;;8.95;2.50;;;;;;;;;;5116417;28;20245;-84
2023/05/24 01:13:15;;;;;;;4.95;1.90;;;;;;;;;;5115961;28;20187;-84
2023/05/24 01:15:50;;;;;;;5.40;2.10;;;;;;;;;;5116758;28;20266;-84
2023/05/24 01:18:25;;;;;;;5.25;2.75;;;;;;;;;;5115075;28;20274;-85
2023/05/24 01:21:03;;;;;;;8.07;2.40;;;;;;;;;;5116307;28;20226;-83
2023/05/24 01:23:42;;;;;;;6.30;2.20;;;;;;;;;;5115565;28;20191;-84
2023/05/24 01:26:21;;;;;;;2.65;1.90;;;;;;;;;;5115675;28;20551;-85
2023/05/24 01:28:50;;;;;;;4.88;2.45;;;;;;;;;;5114688;28;20207;-84
2023/05/24 01:31:19;;;;;;;5.38;2.45;;;;;;;;;;5115991;28;20251;-85
2023/05/24 01:33:47;;;;;;;5.35;2.50;;;;;;;;;;5116112;28;20206;-85
2023/05/24 01:36:14;;;;;;;7.18;2.33;;;;;;;;;;5116088;28;20196;-84
2023/05/24 01:38:42;;;;;;;9.20;2.58;;;;;;;;;;5114421;28;20200;-84
2023/05/24 01:41:21;;;;;;;5.18;2.85;;;;;;;;;;5104487;28;20319;-85
2023/05/24 01:43:56;;;;;;;10.40;3.00;;;;;;;;;;5094611;28;20204;-84
2023/05/24 01:46:33;;;;;;;7.07;2.33;;;;;;;;;;5095795;28;20260;-85
2023/05/24 01:49:13;;;;;;;3.92;2.28;;;;;;;;;;5095973;28;20271;-86
2023/05/24 01:51:48;;;;;;;6.82;3.10;;;;;;;;;;5096009;28;20200;-84
2023/05/24 01:54:17;;;;;;;6.50;2.25;;;;;;;;;;5097069;28;20274;-83
2023/05/24 01:56:45;;;;;;;7.20;2.40;;;;;;;;;;5096178;28;20231;-86
2023/05/24 01:59:14;;;;;;;6.70;3.45;;;;;;;;;;5096283;28;20295;-85
2023/05/24 02:01:42;;;;;;;5.95;2.58;;;;;;;;;;5096177;28;20283;-84
2023/05/24 02:04:09;;;;;;;6.13;2.45;;;;;;;;;;5096881;28;20644;-84
2023/05/24 02:06:37;;;;;;;9.18;2.67;;;;;;;;;;5094886;28;20200;-85
2023/05/24 02:09:04;;;;;;;3.83;2.58;;;;;;;;;;5096074;28;20340;-85
2023/05/24 02:11:32;;;;;;;6.25;3.17;;;;;;;;;;5110643;28;20314;-84
2023/05/24 02:13:59;;;;;;;13.32;2.65;;;;;;;;;;5116325;28;20276;-83
2023/05/24 02:16:29;;;;;;;11.80;2.83;;;;;;;;;;5115223;28;20291;-85
2023/05/24 02:18:57;;;;;;;5.60;2.20;;;;;;;;;;5115444;28;20211;-85
2023/05/24 02:21:26;;;;;;;5.85;3.28;;;;;;;;;;5115816;28;20309;-86
2023/05/24 02:23:53;;;;;;;7.60;2.65;;;;;;;;;;5116732;28;20202;-86
2023/05/24 02:26:20;;;;;;;6.47;2.55;;;;;;;;;;5116747;28;20311;-84
2023/05/24 02:28:48;;;;;;;9.77;3.30;;;;;;;;;;5116180;28;20596;-83
2023/05/24 02:31:15;;;;;;;9.05;3.35;;;;;;;;;;5116416;28;20788;-84
2023/05/24 02:33:44;;;;;;;7.20;3.00;;;;;;;;;;5110623;22;20324;-80
2023/05/24 02:36:12;;;;;;;7.35;2.80;;;;;;;;;;5074279;28;20261;-79
2023/05/24 02:38:39;;;;;;;7.22;2.58;;;;;;;;;;5073306;28;20205;-80
2023/05/24 02:41:07;;;;;;;6.95;3.20;;;;;;;;;;5084846;28;20231;-79
2023/05/24 02:43:35;;;;;;;6.93;2.65;;;;;;;;;;5094534;28;20587;-79
2023/05/24 02:46:02;;;;;;;9.20;2.80;;;;;;;;;;5093747;28;20200;-79
2023/05/24 02:48:30;;;;;;;6.18;2.70;;;;;;;;;;5093284;28;20223;-79
2023/05/24 02:51:01;;;;;;;9.73;2.90;;;;;;;;;;5093567;28;20213;-79
2023/05/24 02:53:30;;;;;;;6.93;3.50;;;;;;;;;;5093488;28;20226;-79
2023/05/24 02:55:57;;;;;;;7.65;3.00;;;;;;;;;;5094107;28;20715;-80
2023/05/24 02:58:27;;;;;;;4.32;2.70;;;;;;;;;;5094557;28;20636;-79
2023/05/24 03:00:55;;;;;;;7.28;3.05;;;;;;;;;;5098783;28;20674;-80
2023/05/24 03:03:23;;;;;;;10.02;3.42;;;;;;;;;;5106957;28;20234;-80
2023/05/24 03:05:50;;;;;;;8.10;2.85;;;;;;;;;;5110081;28;20220;-80
2023/05/24 03:08:19;;;;;;;7.53;3.85;;;;;;;;;;5116312;28;20219;-80
2023/05/24 03:10:46;;;;;;;5.20;3.33;;;;;;;;;;5100951;28;20219;-80
2023/05/24 03:13:14;;;;;;;8.60;3.22;;;;;;;;;;5076703;28;20598;-79
2023/05/24 03:15:41;;;;;;;5.30;2.70;;;;;;;;;;5075882;28;20287;-80
2023/05/24 03:18:09;;;;;;;13.05;3.60;;;;;;;;;;5075452;28;20208;-80
2023/05/24 03:20:36;;;;;;;7.40;4.50;;;;;;;;;;5075747;28;20749;-79
2023/05/24 03:23:04;;;;;;;7.40;3.28;;;;;;;;;;5074958;28;20225;-80
2023/05/24 03:25:33;;;;;;;6.38;3.33;;;;;;;;;;5075698;28;20203;-80
2023/05/24 03:28:01;;;;;;;9.63;3.63;;;;;;;;;;5075070;28;20221;-81
2023/05/24 03:30:28;;;;;;;13.02;3.88;;;;;;;;;;5074762;28;20196;-80
2023/05/24 03:32:56;;;;;;;12.48;3.47;;;;;;;;;;5073937;28;20229;-80
2023/05/24 03:35:23;;;;;;;9.85;2.95;;;;;;;;;;5074513;28;20231;-79
2023/05/24 03:37:51;;;;;;;6.10;2.85;;;;;;;;;;5073966;28;20291;-80
2023/05/24 03:40:19;;;;;;;7.28;2.97;;;;;;;;;;5074227;28;20205;-79
2023/05/24 03:42:48;;;;;;;8.13;4.45;;;;;;;;;;5077569;28;20221;-81
2023/05/24 03:45:15;;;;;;;7.63;3.20;;;;;;;;;;5079135;28;20201;-79
2023/05/24 03:47:43;;;;;;;10.90;3.55;;;;;;;;;;5078346;28;20221;-80
2023/05/24 03:50:13;;;;;;;6.43;3.30;;;;;;;;;;5077520;28;20217;-79
2023/05/24 03:52:41;;;;;;;10.90;3.38;;;;;;;;;;5078141;28;20227;-80
2023/05/24 03:55:10;;;;;;;10.82;3.42;;;;;;;;;;5079661;28;20207;-81
2023/05/24 03:57:37;;;;;;;6.78;3.08;;;;;;;;;;5079908;28;20200;-80
2023/05/24 04:00:08;;;;;;;8.45;3.47;;;;;;;;;;5078213;28;20593;-80
2023/05/24 04:02:36;;;;;;;13.10;3.38;;;;;;;;;;5078743;28;20257;-81
2023/05/24 04:05:04;;;;;;;9.43;3.25;;;;;;;;;;5078107;28;20205;-81
2023/05/24 04:07:32;;;;;;;11.00;3.25;;;;;;;;;;5078743;28;20205;-80
2023/05/24 04:10:00;;;;;;;8.98;3.25;;;;;;;;;;5077810;28;20288;-80
2023/05/24 04:12:27;;;;;;;8.20;3.17;;;;;;;;;;5077091;28;20580;-80
2023/05/24 04:14:55;;;;;;;6.35;3.25;;;;;;;;;;5078198;28;20295;-80
2023/05/24 04:17:24;;;;;;;10.82;5.05;;;;;;;;;;5076808;28;20234;-80
2023/05/24 04:19:52;;;;;;;8.48;3.42;;;;;;;;;;5082609;28;20298;-81
2023/05/24 04:22:19;;;;;;;7.43;2.55;;;;;;;;;;5084539;28;20236;-81
2023/05/24 04:24:48;;;;;;;12.82;3.22;;;;;;;;;;5078082;28;20197;-80
2023/05/24 04:27:16;;;;;;;8.70;3.15;;;;;;;;;;5079865;28;20209;-80
2023/05/24 04:29:48;;;;;;;8.32;2.75;;;;;;;;;;5077273;28;20662;-79
2023/05/24 04:32:16;;;;;;;10.68;3.33;;;;;;;;;;5078088;28;20208;-80
2023/05/24 04:34:45;;;;;;;6.00;2.83;;;;;;;;;;5078408;28;20217;-80
2023/05/24 04:37:16;;;;;;;4.75;2.95;;;;;;;;;;5078343;28;20204;-80
2023/05/24 04:39:44;;;;;;;7.88;3.50;;;;;;;;;;5077097;28;20208;-81
2023/05/24 04:42:12;;;;;;;10.00;3.85;;;;;;;;;;5076396;28;20288;-80
2023/05/24 04:44:41;;;;;;;8.27;3.40;;;;;;;;;;5077963;28;20205;-80
2023/05/24 04:47:09;;;;;;;8.32;3.90;;;;;;;;;;5077273;28;20734;-79
2023/05/24 04:49:37;;;;;;;13.80;3.70;;;;;;;;;;5076811;28;20282;-81
2023/05/24 04:52:07;;;;;;;9.00;4.10;;;;;;;;;;5077035;28;20291;-79
2023/05/24 04:54:34;;;;;;;6.40;3.67;;;;;;;;;;5076616;28;20221;-80
2023/05/24 04:57:02;;;;;;;9.90;4.07;;;;;;;;;;5076731;28;20692;-79
2023/05/24 04:59:29;;;;;;;5.97;2.67;;;;;;;;;;5075264;28;20209;-80
2023/05/24 05:01:57;;;;;;;9.27;4.20;;;;;;;;;;5075922;28;20193;-79
2023/05/24 05:04:24;;;;;;;5.90;3.22;;;;;;;;;;5076252;28;20587;-80
2023/05/24 05:06:52;;;;;;;7.80;3.08;;;;;;;;;;5074981;28;20201;-80
2023/05/24 05:09:21;;;;;;;10.90;3.65;;;;;;;;;;5074874;28;20226;-80
2023/05/24 05:11:49;;;;;;;8.63;3.90;;;;;;;;;;5075766;28;20595;-80
2023/05/24 05:14:16;;;;;;;9.00;3.92;;;;;;;;;;5075639;28;20221;-80
2023/05/24 05:16:45;;;;;;;9.90;3.72;;;;;;;;;;5075145;28;20685;-80
2023/05/24 05:19:12;;;;;;;9.77;3.17;;;;;;;;;;5075551;28;20208;-81
2023/05/24 05:21:39;;;;;;;9.63;3.40;;;;;;;;;;5074382;28;20204;-81
2023/05/24 05:24:07;;;;;;;7.32;3.60;;;;;;;;;;5073844;28;20307;-80
2023/05/24 05:26:36;;;;;;;8.98;4.25;;;;;;;;;;5073751;28;20197;-82
2023/05/24 05:29:03;;;;;;;9.15;3.90;;;;;;;;;;5075470;28;20224;-82
2023/05/24 05:31:31;;;;;;;10.88;4.30;;;;;;;;;;5073905;28;20677;-81
2023/05/24 05:33:58;;;;;;;8.43;3.60;;;;;;;;;;5073380;28;20232;-80
2023/05/24 05:36:26;;;;;;;12.15;3.50;;;;;;;;;;5073658;28;20207;-80
2023/05/24 05:38:53;;;;;;;7.00;3.03;;;;;;;;;;5073008;28;20203;-80
2023/05/24 05:41:21;;;;;;;7.80;3.33;;;;;;;;;;5073284;28;20209;-80
2023/05/24 05:43:49;;;;;;;8.95;4.07;;;;;;;;;;5073118;28;20594;-80
2023/05/24 05:46:19;;;;;;;5.57;3.22;;;;;;;;;;5072649;28;20750;-80
2023/05/24 05:48:47;;;;;;;9.38;4.13;;;;;;;;;;5073017;28;20650;-80
2023/05/24 05:51:14;;;;;;;9.07;4.07;;;;;;;;;;5072856;28;20205;-80
2023/05/24 05:53:41;;;;;;;10.57;4.10;;;;;;;;;;5072615;28;20223;-80
2023/05/24 05:56:09;;;;;;;8.10;4.13;;;;;;;;;;5072753;28;20201;-81
2023/05/24 05:58:37;;;;;;;10.05;4.10;;;;;;;;;;5072322;28;20205;-81
2023/05/24 06:01:06;;;;;;;12.48;3.78;;;;;;;;;;5073455;28;20292;-81
2023/05/24 06:03:33;;;;;;;6.70;3.60;;;;;;;;;;5072237;28;20229;-81
2023/05/24 06:06:01;;;;;;;8.00;3.78;;;;;;;;;;5072890;28;20211;-80
2023/05/24 06:08:33;;;;;;;11.27;2.95;;;;;;;;;;5072530;28;20677;-80
2023/05/24 06:11:01;;;;;;;9.02;4.68;;;;;;;;;;5072886;28;20229;-80
2023/05/24 06:13:30;;;;;;;11.68;4.22;;;;;;;;;;5072592;28;20228;-80
2023/05/24 06:15:58;;;;;;;11.93;4.03;;;;;;;;;;5072833;28;20204;-80
2023/05/24 06:18:29;;;;;;;8.38;4.53;;;;;;;;;;5072090;28;20609;-79
2023/05/24 06:20:56;;;;;;;9.55;3.72;;;;;;;;;;5091270;28;20250;-81
2023/05/24 06:23:24;;;;;;;6.50;4.05;;;;;;;;;;5092251;28;20224;-82
2023/05/24 06:25:51;;;;;;;13.65;4.65;;;;;;;;;;5093200;28;20542;-81
2023/05/24 06:28:19;;;;;;;10.50;4.13;;;;;;;;;;5092547;28;20239;-81
2023/05/24 06:30:48;;;;;;;15.27;5.10;;;;;;;;;;5092160;28;20700;-81
2023/05/24 06:33:16;;;;;;;9.02;4.47;;;;;;;;;;5113689;22;20600;-78
2023/05/24 06:35:45;;;;;;;9.82;4.10;;;;;;;;;;5113013;28;20202;-78
2023/05/24 06:38:12;;;;;;;7.18;3.30;;;;;;;;;;5112458;28;20290;-78
2023/05/24 06:40:40;;;;;;;7.22;3.20;;;;;;;;;;5112524;28;20203;-78
2023/05/24 06:43:07;;;;;;;10.00;4.03;;;;;;;;;;5112169;28;20318;-78
2023/05/24 06:45:35;;;;;;;7.70;3.80;;;;;;;;;;5113059;28;20206;-78
2023/05/24 06:48:03;;;;;;;11.15;3.97;;;;;;;;;;5111691;28;20192;-78
2023/05/24 06:50:30;;;;;;;5.95;3.33;;;;;;;;;;5112288;28;20233;-77
2023/05/24 06:53:01;;;;;;;11.13;4.40;;;;;;;;;;5112077;28;20223;-78
2023/05/24 06:55:29;;;;;;;12.30;4.47;;;;;;;;;;5112502;28;20206;-79
2023/05/24 06:57:56;;;;;;;9.88;4.70;;;;;;;;;;5112352;28;20303;-78
2023/05/24 07:00:24;;;;;;;10.07;3.90;;;;;;;;;;5112399;28;20199;-78
2023/05/24 07:02:51;;;;;;;6.07;4.18;;;;;;;;;;5112430;28;20744;-78
2023/05/24 07:05:19;;;;;;;5.65;3.42;;;;;;;;;;5112377;28;20294;-78
2023/05/24 07:07:46;;;;;;;5.63;2.88;;;;;;;;;;5111654;28;20286;-79
2023/05/24 07:10:15;;;;;;;8.77;3.85;;;;;;;;;;5112141;28;20219;-79
2023/05/24 07:12:42;;;;;;;11.15;3.72;;;;;;;;;;5112198;28;20207;-78
2023/05/24 07:15:10;;;;;;;9.10;3.85;;;;;;;;;;5112361;28;20574;-78
2023/05/24 07:17:38;;;;;;;10.63;4.25;;;;;;;;;;5115857;28;20196;-79
2023/05/24 07:20:09;;;;;;;11.52;4.40;;;;;;;;;;5116043;28;20585;-78
2023/05/24 07:22:36;;;;;;;10.50;3.80;;;;;;;;;;5116844;28;20570;-78
2023/05/24 07:25:04;;;;;;;10.32;4.05;;;;;;;;;;5116583;28;20682;-78
2023/05/24 07:27:33;;;;;;;11.75;5.13;;;;;;;;;;5116647;28;20199;-79
2023/05/24 07:30:00;;;;;;;6.82;3.72;;;;;;;;;;5116171;28;20219;-79
2023/05/24 07:32:28;;;;;;;8.57;4.45;;;;;;;;;;5116280;28;20585;-79
2023/05/24 07:34:55;;;;;;;8.73;3.53;;;;;;;;;;5115672;28;20204;-78
2023/05/24 07:37:23;;;;;;;7.72;3.90;;;;;;;;;;5115978;28;20200;-78
2023/05/24 07:39:51;;;;;;;11.43;4.25;;;;;;;;;;5116513;28;20208;-79
2023/05/24 07:42:20;;;;;;;4.63;3.40;;;;;;;;;;5117786;28;20667;-80
2023/05/24 07:44:49;;;;;;;5.07;3.58;;;;;;;;;;5117326;28;20324;-78
2023/05/24 07:47:16;;;;;;;7.75;3.67;;;;;;;;;;5118302;28;20203;-78
2023/05/24 07:49:44;;;;;;;9.15;3.60;;;;;;;;;;5117627;28;20588;-78
2023/05/24 07:52:11;;;;;;;12.52;4.07;;;;;;;;;;5117059;28;20195;-80
2023/05/24 07:54:39;;;;;;;8.10;3.67;;;;;;;;;;5117142;28;20215;-79
2023/05/24 07:57:07;;;;;;;7.35;4.22;;;;;;;;;;5116307;28;20210;-79
2023/05/24 07:59:34;;;;;;;9.02;4.47;;;;;;;;;;5117934;28;20230;-79
2023/05/24 08:02:04;;;;;;;7.50;3.47;;;;;;;;;;5116919;28;20578;-79
2023/05/24 08:04:32;;;;;;;9.52;4.28;;;;;;;;;;5117836;28;20281;-79
2023/05/24 08:07:00;;;;;;;7.88;3.30;;;;;;;;;;5117566;28;20195;-79
2023/05/24 08:09:32;;;;;;;8.95;3.40;;;;;;;;;;5116080;28;20206;-78
2023/05/24 08:12:00;;;;;;;5.50;2.78;;;;;;;;;;5115801;28;20223;-79
2023/05/24 08:14:27;;;;;;;3.90;2.83;;;;;;;;;;5117095;28;20340;-79
2023/05/24 08:16:54;;;;;;;5.85;3.08;;;;;;;;;;5116381;28;20246;-78
2023/05/24 08:19:23;;;;;;;4.38;2.83;;;;;;;;;;5117166;28;20675;-81
2023/05/24 08:21:51;;;;;;;6.72;3.25;;;;;;;;;;5115836;28;20283;-79
2023/05/24 08:24:18;;;;;;;6.25;3.00;;;;;;;;;;5116825;28;20216;-80
2023/05/24 08:26:45;;;;;;;7.05;4.00;;;;;;;;;;5116508;28;20209;-80
2023/05/24 08:29:13;;;;;;;8.82;3.95;;;;;;;;;;5116339;28;20217;-78
2023/05/24 08:31:40;;;;;;;9.70;3.78;;;;;;;;;;5116146;28;20223;-79
2023/05/24 08:34:08;;;;;;;6.75;3.92;;;;;;;;;;5115223;27;20311;-79
2023/05/24 08:36:37;;;;;;;6.03;3.50;;;;;;;;;;5116543;28;20199;-80
2023/05/24 08:39:05;;;;;;;9.23;3.67;;;;;;;;;;5116109;28;20204;-79
2023/05/24 08:41:36;;;;;;;6.93;3.28;;;;;;;;;;5115536;28;20229;-81
2023/05/24 08:44:06;;;;;;;6.38;3.50;;;;;;;;;;5115731;28;20219;-79
2023/05/24 08:46:35;;;;;;;5.43;3.08;;;;;;;;;;5115202;28;20200;-79
2023/05/24 08:49:03;;;;;;;4.22;2.95;;;;;;;;;;5115708;28;20203;-81
2023/05/24 08:51:31;;;;;;;6.05;4.03;;;;;;;;;;5116209;28;20231;-81
2023/05/24 08:54:00;;;;;;;6.13;3.70;;;;;;;;;;5114737;28;20212;-79
2023/05/24 08:56:28;;;;;;;6.57;3.17;;;;;;;;;;5115870;28;20195;-79
2023/05/24 08:58:56;;;;;;;3.88;2.85;;;;;;;;;;5114451;28;20210;-79
2023/05/24 09:01:25;;;;;;;5.50;2.40;;;;;;;;;;5115281;28;20671;-80
2023/05/24 09:03:53;;;;;;;6.38;3.72;;;;;;;;;;5114820;28;20718;-79
2023/05/24 09:06:21;;;;;;;10.35;5.22;;;;;;;;;;5116252;28;20191;-80
2023/05/24 09:08:51;;;;;;;8.38;2.83;;;;;;;;;;5117017;28;20637;-80
2023/05/24 09:11:21;;;;;;;7.85;2.80;;;;;;;;;;5116914;28;20220;-80
2023/05/24 09:13:49;;;;;;;3.97;2.85;;;;;;;;;;5117195;28;20290;-80
2023/05/24 09:16:16;;;;;;;3.58;2.67;;;;;;;;;;5116383;28;20550;-80
2023/05/24 09:18:44;;;;;;;7.90;3.35;;;;;;;;;;5115858;28;20210;-79
2023/05/24 09:21:12;;;;;;;6.60;3.20;;;;;;;;;;5116115;28;20195;-80
2023/05/24 09:23:39;;;;;;;5.32;3.90;;;;;;;;;;5116432;28;20223;-81
2023/05/24 09:26:10;;;;;;;5.85;3.42;;;;;;;;;;5115655;28;20195;-80
2023/05/24 09:28:40;;;;;;;5.47;2.65;;;;;;;;;;5114856;28;20442;-79
2023/05/24 09:31:07;;;;;;;3.70;2.33;;;;;;;;;;5115364;28;20722;-80
2023/05/24 09:33:35;;;;;;;6.03;3.63;;;;;;;;;;5114457;28;20242;-80
2023/05/24 09:36:06;;;;;;;8.65;2.97;;;;;;;;;;5115825;28;20195;-79
2023/05/24 09:38:34;;;;;;;4.65;2.78;;;;;;;;;;5114709;28;20222;-80
2023/05/24 09:41:05;;;;;;;6.57;3.70;;;;;;;;;;5115659;28;20249;-80
2023/05/24 09:43:35;;;;;;;4.65;2.20;;;;;;;;;;5115422;28;20219;-79
2023/05/24 09:46:04;;;;;;;4.00;2.28;;;;;;;;;;5115703;28;20206;-81
2023/05/24 09:48:32;;;;;;;6.45;3.45;;;;;;;;;;5114033;28;20204;-79
2023/05/24 09:51:04;;;;;;;6.78;3.05;;;;;;;;;;5114274;28;20203;-79
2023/05/24 09:53:33;;;;;;;7.32;3.65;;;;;;;;;;5113982;28;20219;-80
2023/05/24 09:56:03;;;;;;;5.32;2.83;;;;;;;;;;5114236;28;20664;-78
2023/05/24 09:58:32;;;;;;;5.18;2.72;;;;;;;;;;5114440;28;20636;-79
2023/05/24 10:01:11;;;;;;;4.88;2.88;;;;;;;;;;5114387;28;20226;-80
2023/05/24 10:03:39;;;;;;;6.03;3.70;;;;;;;;;;5114275;28;20230;-80
2023/05/24 10:06:07;;;;;;;3.05;2.25;;;;;;;;;;5114191;28;20213;-80
2023/05/24 10:08:35;;;;;;;5.85;2.65;;;;;;;;;;5114867;28;20202;-80
2023/05/24 10:11:04;;;;;;;7.30;2.90;;;;;;;;;;5114469;28;20195;-81
2023/05/24 10:13:34;;;;;;;5.03;2.50;;;;;;;;;;5114265;28;20585;-80
2023/05/24 10:16:02;;;;;;;5.55;2.70;;;;;;;;;;5113934;28;20210;-79
2023/05/24 10:18:31;;;;;;;4.22;2.30;;;;;;;;;;5112958;28;20200;-80
2023/05/24 10:20:59;;;;;;;3.75;2.22;;;;;;;;;;5113486;28;20256;-79
2023/05/24 10:23:31;;;;;;;4.30;2.30;;;;;;;;;;5113759;28;20227;-80
2023/05/24 10:26:06;;;;;;;5.07;3.10;;;;;;;;;;5113887;28;20505;-80
2023/05/24 10:28:36;;;;;;;4.20;2.50;;;;;;;;;;5113333;28;20219;-80
2023/05/24 10:31:10;;;;;;;3.90;2.58;;;;;;;;;;5113683;28;20200;-81
2023/05/24 10:33:41;;;;;;;3.83;2.60;;;;;;;;;;5114144;28;20222;-79
2023/05/24 10:36:12;;;;;;;4.07;2.40;;;;;;;;;;5113562;28;20204;-79
2023/05/24 10:38:40;;;;;;;5.93;2.80;;;;;;;;;;5113279;28;20667;-80
2023/05/24 10:41:08;;;;;;;5.45;3.25;;;;;;;;;;5112704;28;20206;-79
2023/05/24 10:43:36;;;;;;;7.15;2.42;;;;;;;;;;5112903;28;20222;-80
2023/05/24 10:46:04;;;;;;;6.10;3.90;;;;;;;;;;5113475;28;20202;-81
2023/05/24 10:48:41;;;;;;;3.83;2.10;;;;;;;;;;5113356;28;20203;-80
2023/05/24 10:51:33;;;;;;;4.00;2.70;;;;;;;;;;5113293;28;20203;-81
2023/05/24 10:54:17;;;;;;;6.50;2.30;;;;;;;;;;5115334;28;20265;-80
2023/05/24 10:56:49;;;;;;;4.72;2.58;;;;;;;;;;5111595;28;20203;-80
2023/05/24 10:59:36;;;;;;;5.50;3.78;;;;;;;;;;5112716;28;20203;-80
2023/05/24 11:02:05;;;;;;;6.50;3.45;;;;;;;;;;5112900;28;20191;-80
2023/05/24 11:04:38;;;;;;;4.80;3.10;;;;;;;;;;5112625;28;20725;-80
2023/05/24 11:07:08;;;;;;;6.80;2.97;;;;;;;;;;5113357;28;20640;-80
2023/05/24 11:09:36;;;;;;;4.63;2.47;;;;;;;;;;5112759;28;20239;-79
2023/05/24 11:12:07;;;;;;;6.00;3.13;;;;;;;;;;5112904;28;22638;-80
2023/05/24 11:14:38;;;;;;;5.95;3.80;;;;;;;;;;5112746;28;20228;-80
2023/05/24 11:17:06;;;;;;;5.05;2.33;;;;;;;;;;5113844;28;20548;-80
2023/05/24 11:19:37;;;;;;;5.07;2.67;;;;;;;;;;5113370;28;20206;-80
2023/05/24 11:22:08;;;;;;;6.35;3.35;;;;;;;;;;5112782;28;20214;-80
2023/05/24 11:24:35;;;;;;;4.25;2.35;;;;;;;;;;5112783;28;20227;-80
2023/05/24 11:27:04;;;;;;;4.28;2.85;;;;;;;;;;5114032;28;20219;-80
2023/05/24 11:29:32;;;;;;;7.72;3.08;;;;;;;;;;5112926;28;20589;-80
2023/05/24 11:32:03;;;;;;;8.75;3.63;;;;;;;;;;5112320;28;20203;-80
2023/05/24 11:34:31;;;;;;;8.25;4.15;;;;;;;;;;5112768;28;20253;-80
2023/05/24 11:37:01;;;;;;;5.22;2.90;;;;;;;;;;5112671;28;20252;-80
2023/05/24 11:39:33;;;;;;;6.97;3.55;;;;;;;;;;5113414;28;20211;-81
2023/05/24 11:42:01;;;;;;;5.60;2.97;;;;;;;;;;5113281;28;20631;-80
2023/05/24 11:44:31;;;;;;;4.63;2.20;;;;;;;;;;5112952;28;20219;-80
2023/05/24 11:47:00;;;;;;;8.13;3.10;;;;;;;;;;5113562;28;20203;-80
2023/05/24 11:49:27;;;;;;;6.18;3.10;;;;;;;;;;5111601;28;20204;-80
2023/05/24 11:51:56;;;;;;;5.38;2.58;;;;;;;;;;5112706;28;20210;-80
2023/05/24 11:54:25;;;;;;;5.18;2.80;;;;;;;;;;5112995;28;20223;-79
2023/05/24 11:56:53;;;;;;;5.28;2.58;;;;;;;;;;5113105;28;20581;-80
2023/05/24 11:59:25;;;;;;;8.13;2.92;;;;;;;;;;5112899;28;20737;-79
2023/05/24 12:02:00;;;;;;;7.97;3.20;;;;;;;;;;5113268;28;20207;-79
2023/05/24 12:04:27;;;;;;;8.27;3.03;;;;;;;;;;5116556;28;20739;-80
2023/05/24 12:06:55;;;;;;;4.38;2.65;;;;;;;;;;5116025;28;20630;-79
2023/05/24 12:09:24;;;;;;;9.38;4.32;;;;;;;;;;5116224;28;20203;-79
2023/05/24 12:11:53;;;;;;;6.60;2.70;;;;;;;;;;5116628;28;20201;-80
2023/05/24 12:14:23;;;;;;;6.97;2.70;;;;;;;;;;5115697;28;20580;-79
2023/05/24 12:16:50;;;;;;;5.57;3.10;;;;;;;;;;5117178;28;20214;-80
2023/05/24 12:19:19;;;;;;;4.47;3.00;;;;;;;;;;5114076;28;20278;-79
2023/05/24 12:21:48;;;;;;;14.15;4.05;;;;;;;;;;5116369;28;20200;-80
2023/05/24 12:24:18;;;;;;;8.52;3.53;;;;;;;;;;5115861;28;20303;-80
2023/05/24 12:26:48;;;;;;;7.35;3.05;;;;;;;;;;5116144;28;20234;-79
2023/05/24 12:29:16;;;;;;;3.63;2.75;;;;;;;;;;5115258;28;20210;-80
2023/05/24 12:31:49;;;;;;;6.25;2.88;;;;;;;;;;5115807;28;20253;-81
2023/05/24 12:34:18;;;;;;;5.40;2.83;;;;;;;;;;5106354;22;20239;-82
2023/05/24 12:36:46;;;;;;;6.80;2.80;;;;;;;;;;5075181;28;20197;-80
2023/05/24 12:39:19;;;;;;;4.88;3.22;;;;;;;;;;5074922;28;20258;-82
2023/05/24 12:41:51;;;;;;;3.72;2.30;;;;;;;;;;5074905;28;20207;-82
2023/05/24 12:44:25;;;;;;;13.95;4.95;;;;;;;;;;5075157;28;20217;-81
2023/05/24 12:46:53;;;;;;;4.97;2.47;;;;;;;;;;5075047;28;20624;-82
2023/05/24 12:49:20;;;;;;;10.43;3.45;;;;;;;;;;5075010;28;20673;-82
2023/05/24 12:51:48;;;;;;;7.38;3.55;;;;;;;;;;5075129;28;20251;-82
2023/05/24 12:54:15;;;;;;;6.53;3.30;;;;;;;;;;5074362;28;20614;-81
2023/05/24 12:56:43;;;;;;;4.95;2.65;;;;;;;;;;5074847;28;20201;-81
2023/05/24 12:59:12;;;;;;;4.85;2.50;;;;;;;;;;5074548;28;20207;-81
2023/05/24 13:01:40;;;;;;;9.73;3.85;;;;;;;;;;5074909;28;20208;-81
2023/05/24 13:04:09;;;;;;;5.22;3.50;;;;;;;;;;5074778;28;20781;-81
2023/05/24 13:06:37;;;;;;;7.50;3.20;;;;;;;;;;5074938;28;20199;-82
2023/05/24 13:09:05;;;;;;;8.27;2.42;;;;;;;;;;5075109;28;20205;-81
2023/05/24 13:11:32;;;;;;;4.95;3.08;;;;;;;;;;5075481;28;20208;-81
2023/05/24 13:14:00;;;;;;;5.82;3.83;;;;;;;;;;5073488;28;20311;-83
2023/05/24 13:16:29;;;;;;;5.57;3.47;;;;;;;;;;5077972;28;20228;-82
2023/05/24 13:18:56;;;;;;;8.20;3.38;;;;;;;;;;5076217;28;20231;-82
2023/05/24 13:21:24;;;;;;;13.60;3.78;;;;;;;;;;5076126;28;20200;-82
2023/05/24 13:23:51;;;;;;;4.30;2.47;;;;;;;;;;5075852;28;20217;-82
2023/05/24 13:26:19;;;;;;;5.93;2.78;;;;;;;;;;5075706;28;20208;-81
2023/05/24 13:28:46;;;;;;;5.70;2.70;;;;;;;;;;5075127;28;20299;-82
2023/05/24 13:31:14;;;;;;;5.85;2.85;;;;;;;;;;5075160;28;20654;-81
2023/05/24 13:33:43;;;;;;;6.15;3.30;;;;;;;;;;5088418;28;20220;-81
2023/05/24 13:36:11;;;;;;;4.88;2.72;;;;;;;;;;5095736;28;20291;-81
2023/05/24 13:38:38;;;;;;;7.70;2.70;;;;;;;;;;5095551;28;20196;-81
2023/05/24 13:41:06;;;;;;;4.65;2.78;;;;;;;;;;5094786;28;20287;-82
2023/05/24 13:43:33;;;;;;;6.03;2.60;;;;;;;;;;5095549;28;20224;-83
2023/05/24 13:46:01;;;;;;;4.90;2.85;;;;;;;;;;5095183;28;20707;-83
2023/05/24 13:48:28;;;;;;;2.30;2.10;;;;;;;;;;5094770;28;20235;-82
2023/05/24 13:50:57;;;;;;;5.75;2.25;;;;;;;;;;5076927;28;20207;-82
2023/05/24 13:53:25;;;;;;;2.53;2.33;;;;;;;;;;5073881;28;20227;-81
2023/05/24 13:55:52;;;;;;;3.22;1.70;;;;;;;;;;5074351;28;20204;-80
2023/05/24 13:58:20;;;;;;;4.97;1.90;;;;;;;;;;5074363;28;20208;-81
2023/05/24 14:00:47;;;;;;;2.97;1.98;;;;;;;;;;5074041;28;20296;-81
2023/05/24 14:03:16;;;;;;;1.65;1.48;;;;;;;;;;5073921;28;20946;-80
2023/05/24 14:05:43;;;;;;;2.88;1.52;;;;;;;;;;5073249;28;20197;-81
2023/05/24 14:08:13;;;;;;;1.60;1.33;;;;;;;;;;5072938;28;20209;-81
2023/05/24 14:10:40;;;;;;;3.25;1.55;;;;;;;;;;5074066;28;20307;-81
2023/05/24 14:13:08;;;;;;;5.88;2.78;;;;;;;;;;5073277;28;20208;-80
2023/05/24 14:15:35;;;;;;;2.38;1.63;;;;;;;;;;5073744;28;20225;-82
2023/05/24 14:18:06;;;;;;;2.47;1.52;;;;;;;;;;5073329;28;20287;-81
2023/05/24 14:20:35;;;;;;;3.20;2.00;;;;;;;;;;5074594;28;20209;-81
2023/05/24 14:23:03;;;;;;;7.30;2.47;;;;;;;;;;5073717;28;20196;-82
2023/05/24 14:25:31;;;;;;;3.58;2.30;;;;;;;;;;5072872;28;20289;-81
2023/05/24 14:27:59;;;;;;;2.78;1.80;;;;;;;;;;5072867;28;20205;-82
2023/05/24 14:30:27;;;;;;;3.30;1.98;;;;;;;;;;5073454;28;20232;-82
2023/05/24 14:32:55;;;;;;;3.10;1.80;;;;;;;;;;5072783;28;20293;-81
2023/05/24 14:35:22;;;;;;;2.50;1.70;;;;;;;;;;5071455;28;20309;-80
2023/05/24 14:37:50;;;;;;;2.75;1.65;;;;;;;;;;5072033;28;20292;-81
2023/05/24 14:40:17;;;;;;;2.85;1.50;;;;;;;;;;5072641;28;20212;-80
2023/05/24 14:42:46;;;;;;;2.88;1.60;;;;;;;;;;5071838;28;20287;-81
2023/05/24 14:45:13;;;;;;;2.95;1.60;;;;;;;;;;5072220;28;20312;-80
2023/05/24 14:47:41;;;;;;;2.05;1.50;;;;;;;;;;5071682;28;20207;-81
2023/05/24 14:50:09;;;;;;;2.20;1.45;;;;;;;;;;5072260;28;20581;-80